sensor_id;sensor_type;location;lat;lon;timestamp;noise_LAeq;noise_LA_min;noise_LA_max;noise_LA01;noise_LA95
74214;Laerm;62576;55.694;37.494;2024-03-02T00:01:46;60.92;51.12;70.15;;
74214;Laerm;62576;55.694;37.494;2024-03-02T00:04:19;59.42;51.18;70.40;;
74214;Laerm;62576;55.694;37.494;2024-03-02T00:06:51;58.97;49.93;70.76;;
74214;Laerm;62576;55.694;37.494;2024-03-02T00:09:23;58.02;51.62;65.52;;
74214;Laerm;62576;55.694;37.494;2024-03-02T00:11:53;59.97;51.40;68.34;;
74214;Laerm;62576;55.694;37.494;2024-03-02T00:14:24;56.84;49.41;65.55;;
74214;Laerm;62576;55.694;37.494;2024-03-02T00:16:56;58.64;50.58;67.05;;
74214;Laerm;62576;55.694;37.494;2024-03-02T00:19:26;57.92;50.56;65.18;;
74214;Laerm;62576;55.694;37.494;2024-03-02T00:22:00;58.08;47.70;66.91;;
74214;Laerm;62576;55.694;37.494;2024-03-02T00:24:32;56.08;48.83;64.44;;
74214;Laerm;62576;55.694;37.494;2024-03-02T00:27:04;57.92;46.92;67.48;;
74214;Laerm;62576;55.694;37.494;2024-03-02T00:29:35;56.97;47.65;66.79;;
74214;Laerm;62576;55.694;37.494;2024-03-02T00:32:12;56.60;50.20;64.48;;
74214;Laerm;62576;55.694;37.494;2024-03-02T00:34:43;54.88;48.46;61.98;;
74214;Laerm;62576;55.694;37.494;2024-03-02T00:37:14;57.64;50.02;66.50;;
74214;Laerm;62576;55.694;37.494;2024-03-02T00:39:49;55.82;48.06;66.10;;
74214;Laerm;62576;55.694;37.494;2024-03-02T00:42:19;58.17;50.34;65.82;;
74214;Laerm;62576;55.694;37.494;2024-03-02T00:44:49;59.24;52.39;67.43;;
74214;Laerm;62576;55.694;37.494;2024-03-02T00:47:21;59.20;51.67;69.19;;
74214;Laerm;62576;55.694;37.494;2024-03-02T00:49:51;58.03;50.32;66.60;;
74214;Laerm;62576;55.694;37.494;2024-03-02T00:52:21;58.44;50.66;66.77;;
74214;Laerm;62576;55.694;37.494;2024-03-02T00:54:52;60.13;49.11;68.13;;
74214;Laerm;62576;55.694;37.494;2024-03-02T00:57:22;57.51;48.95;64.57;;
74214;Laerm;62576;55.694;37.494;2024-03-02T00:59:56;58.87;49.90;69.78;;
74214;Laerm;62576;55.694;37.494;2024-03-02T01:02:28;58.29;50.15;68.13;;
74214;Laerm;62576;55.694;37.494;2024-03-02T01:04:59;56.78;48.46;67.24;;
74214;Laerm;62576;55.694;37.494;2024-03-02T01:07:29;59.56;50.44;70.85;;
74214;Laerm;62576;55.694;37.494;2024-03-02T01:09:59;56.12;46.85;63.60;;
74214;Laerm;62576;55.694;37.494;2024-03-02T01:12:29;59.38;50.16;71.42;;
74214;Laerm;62576;55.694;37.494;2024-03-02T01:14:59;58.13;50.96;66.19;;
74214;Laerm;62576;55.694;37.494;2024-03-02T01:17:31;58.19;50.57;69.97;;
74214;Laerm;62576;55.694;37.494;2024-03-02T01:20:01;57.80;49.42;66.32;;
74214;Laerm;62576;55.694;37.494;2024-03-02T01:22:32;59.87;49.19;69.67;;
74214;Laerm;62576;55.694;37.494;2024-03-02T01:25:02;57.97;51.44;65.80;;
74214;Laerm;62576;55.694;37.494;2024-03-02T01:27:32;57.94;47.67;67.68;;
74214;Laerm;62576;55.694;37.494;2024-03-02T01:30:03;55.89;47.08;67.94;;
74214;Laerm;62576;55.694;37.494;2024-03-02T01:32:35;57.99;47.75;69.88;;
74214;Laerm;62576;55.694;37.494;2024-03-02T01:35:08;59.53;48.78;67.53;;
74214;Laerm;62576;55.694;37.494;2024-03-02T01:37:38;57.89;48.31;68.53;;
74214;Laerm;62576;55.694;37.494;2024-03-02T01:40:10;56.43;49.28;62.31;;
74214;Laerm;62576;55.694;37.494;2024-03-02T01:42:40;56.05;47.35;67.54;;
74214;Laerm;62576;55.694;37.494;2024-03-02T01:45:11;58.66;48.41;67.43;;
74214;Laerm;62576;55.694;37.494;2024-03-02T01:47:42;58.87;50.37;66.80;;
74214;Laerm;62576;55.694;37.494;2024-03-02T01:50:13;59.24;49.10;71.99;;
74214;Laerm;62576;55.694;37.494;2024-03-02T01:52:43;58.94;49.17;73.82;;
74214;Laerm;62576;55.694;37.494;2024-03-02T01:55:13;57.45;49.73;65.89;;
74214;Laerm;62576;55.694;37.494;2024-03-02T01:57:44;60.91;48.73;80.74;;
74214;Laerm;62576;55.694;37.494;2024-03-02T02:00:17;59.53;48.84;70.86;;
74214;Laerm;62576;55.694;37.494;2024-03-02T02:02:48;59.76;48.66;69.06;;
74214;Laerm;62576;55.694;37.494;2024-03-02T02:05:18;58.72;49.35;67.86;;
74214;Laerm;62576;55.694;37.494;2024-03-02T02:07:49;60.01;49.34;68.20;;
74214;Laerm;62576;55.694;37.494;2024-03-02T02:10:19;57.23;47.99;71.73;;
74214;Laerm;62576;55.694;37.494;2024-03-02T02:12:49;62.85;52.08;72.61;;
74214;Laerm;62576;55.694;37.494;2024-03-02T02:15:27;57.52;48.82;67.97;;
74214;Laerm;62576;55.694;37.494;2024-03-02T02:17:59;56.63;50.23;65.94;;
74214;Laerm;62576;55.694;37.494;2024-03-02T02:20:26;61.46;51.70;70.50;;
74214;Laerm;62576;55.694;37.494;2024-03-02T02:23:02;57.84;51.45;69.53;;
74214;Laerm;62576;55.694;37.494;2024-03-02T02:25:33;58.48;50.53;67.07;;
74214;Laerm;62576;55.694;37.494;2024-03-02T02:28:04;58.70;48.74;71.48;;
74214;Laerm;62576;55.694;37.494;2024-03-02T02:30:34;57.96;49.02;66.68;;
74214;Laerm;62576;55.694;37.494;2024-03-02T02:33:04;57.51;49.07;63.89;;
74214;Laerm;62576;55.694;37.494;2024-03-02T02:35:35;58.11;47.15;65.38;;
74214;Laerm;62576;55.694;37.494;2024-03-02T02:38:07;59.29;51.99;66.78;;
74214;Laerm;62576;55.694;37.494;2024-03-02T02:40:37;62.69;51.13;71.17;;
74214;Laerm;62576;55.694;37.494;2024-03-02T02:43:07;57.49;50.77;68.38;;
74214;Laerm;62576;55.694;37.494;2024-03-02T02:45:37;57.27;50.98;64.52;;
74214;Laerm;62576;55.694;37.494;2024-03-02T02:48:07;58.38;48.68;65.41;;
74214;Laerm;62576;55.694;37.494;2024-03-02T02:50:37;59.55;48.56;71.88;;
74214;Laerm;62576;55.694;37.494;2024-03-02T02:53:09;57.47;49.39;66.97;;
74214;Laerm;62576;55.694;37.494;2024-03-02T02:55:40;57.76;48.13;72.21;;
74214;Laerm;62576;55.694;37.494;2024-03-02T02:58:11;57.58;48.96;71.10;;
74214;Laerm;62576;55.694;37.494;2024-03-02T03:00:43;61.62;49.56;70.90;;
74214;Laerm;62576;55.694;37.494;2024-03-02T03:03:14;57.48;51.63;65.14;;
74214;Laerm;62576;55.694;37.494;2024-03-02T03:05:44;56.24;50.88;63.59;;
74214;Laerm;62576;55.694;37.494;2024-03-02T03:08:16;59.96;49.94;68.38;;
74214;Laerm;62576;55.694;37.494;2024-03-02T03:10:46;60.43;50.07;70.21;;
74214;Laerm;62576;55.694;37.494;2024-03-02T03:13:16;58.77;49.74;67.53;;
74214;Laerm;62576;55.694;37.494;2024-03-02T03:15:47;56.52;48.89;63.94;;
74214;Laerm;62576;55.694;37.494;2024-03-02T03:18:17;58.38;48.52;70.84;;
74214;Laerm;62576;55.694;37.494;2024-03-02T03:20:47;58.39;47.67;66.93;;
74214;Laerm;62576;55.694;37.494;2024-03-02T03:23:20;59.00;47.95;70.60;;
74214;Laerm;62576;55.694;37.494;2024-03-02T03:25:50;57.89;46.83;67.47;;
74214;Laerm;62576;55.694;37.494;2024-03-02T03:28:20;59.25;50.08;74.18;;
74214;Laerm;62576;55.694;37.494;2024-03-02T03:30:50;61.24;50.80;71.93;;
74214;Laerm;62576;55.694;37.494;2024-03-02T03:33:20;57.89;51.68;63.60;;
74214;Laerm;62576;55.694;37.494;2024-03-02T03:35:50;60.42;48.31;68.28;;
74214;Laerm;62576;55.694;37.494;2024-03-02T03:38:23;61.77;50.50;72.28;;
74214;Laerm;62576;55.694;37.494;2024-03-02T03:40:53;60.03;52.20;69.10;;
74214;Laerm;62576;55.694;37.494;2024-03-02T03:43:23;59.15;50.46;68.43;;
74214;Laerm;62576;55.694;37.494;2024-03-02T03:45:53;59.65;50.41;68.18;;
74214;Laerm;62576;55.694;37.494;2024-03-02T03:48:24;61.15;52.19;70.20;;
74214;Laerm;62576;55.694;37.494;2024-03-02T03:50:58;61.82;50.20;70.44;;
74214;Laerm;62576;55.694;37.494;2024-03-02T03:53:30;60.15;52.74;72.79;;
74214;Laerm;62576;55.694;37.494;2024-03-02T03:56:00;58.81;49.22;67.83;;
74214;Laerm;62576;55.694;37.494;2024-03-02T03:58:27;63.91;50.75;71.12;;
74214;Laerm;62576;55.694;37.494;2024-03-02T04:00:54;61.89;52.07;76.34;;
74214;Laerm;62576;55.694;37.494;2024-03-02T04:03:25;63.37;52.65;70.36;;
74214;Laerm;62576;55.694;37.494;2024-03-02T04:05:55;63.02;51.15;71.39;;
74214;Laerm;62576;55.694;37.494;2024-03-02T04:08:25;62.79;52.24;71.64;;
74214;Laerm;62576;55.694;37.494;2024-03-02T04:10:57;63.15;54.04;72.86;;
74214;Laerm;62576;55.694;37.494;2024-03-02T04:13:27;63.95;53.15;71.63;;
74214;Laerm;62576;55.694;37.494;2024-03-02T04:15:57;63.36;54.38;72.27;;
74214;Laerm;62576;55.694;37.494;2024-03-02T04:18:27;62.97;53.74;71.62;;
74214;Laerm;62576;55.694;37.494;2024-03-02T04:20:57;64.47;52.71;71.97;;
74214;Laerm;62576;55.694;37.494;2024-03-02T04:23:27;64.11;56.13;72.57;;
74214;Laerm;62576;55.694;37.494;2024-03-02T04:25:59;63.87;53.68;72.10;;
74214;Laerm;62576;55.694;37.494;2024-03-02T04:28:30;62.43;53.04;70.34;;
74214;Laerm;62576;55.694;37.494;2024-03-02T04:31:00;63.67;51.23;71.62;;
74214;Laerm;62576;55.694;37.494;2024-03-02T04:33:30;66.11;56.67;74.20;;
74214;Laerm;62576;55.694;37.494;2024-03-02T04:36:00;64.98;56.88;71.85;;
74214;Laerm;62576;55.694;37.494;2024-03-02T04:38:30;63.91;55.28;70.62;;
74214;Laerm;62576;55.694;37.494;2024-03-02T04:41:03;64.39;53.03;71.72;;
74214;Laerm;62576;55.694;37.494;2024-03-02T04:43:33;65.50;56.46;73.70;;
74214;Laerm;62576;55.694;37.494;2024-03-02T04:46:04;63.76;55.07;71.97;;
74214;Laerm;62576;55.694;37.494;2024-03-02T04:48:35;64.92;57.84;72.09;;
74214;Laerm;62576;55.694;37.494;2024-03-02T04:51:05;64.54;55.79;70.63;;
74214;Laerm;62576;55.694;37.494;2024-03-02T04:53:35;64.90;53.91;72.40;;
74214;Laerm;62576;55.694;37.494;2024-03-02T04:56:08;66.42;55.84;74.48;;
74214;Laerm;62576;55.694;37.494;2024-03-02T04:59:04;65.28;56.60;72.21;;
74214;Laerm;62576;55.694;37.494;2024-03-02T05:01:34;65.21;55.66;75.13;;
74214;Laerm;62576;55.694;37.494;2024-03-02T05:04:04;65.77;57.11;71.59;;
74214;Laerm;62576;55.694;37.494;2024-03-02T05:06:35;64.74;56.39;73.46;;
74214;Laerm;62576;55.694;37.494;2024-03-02T05:09:05;64.05;54.47;71.45;;
74214;Laerm;62576;55.694;37.494;2024-03-02T05:11:37;66.39;57.82;74.05;;
74214;Laerm;62576;55.694;37.494;2024-03-02T05:14:38;64.44;56.12;71.45;;
74214;Laerm;62576;55.694;37.494;2024-03-02T05:17:08;65.85;57.46;72.04;;
74214;Laerm;62576;55.694;37.494;2024-03-02T05:19:39;65.06;55.45;72.51;;
74214;Laerm;62576;55.694;37.494;2024-03-02T05:22:09;65.87;56.36;71.83;;
74214;Laerm;62576;55.694;37.494;2024-03-02T05:24:39;66.56;56.16;82.56;;
74214;Laerm;62576;55.694;37.494;2024-03-02T05:27:11;65.88;55.45;72.68;;
74214;Laerm;62576;55.694;37.494;2024-03-02T05:29:40;67.26;56.76;74.68;;
74214;Laerm;62576;55.694;37.494;2024-03-02T05:32:11;67.74;58.66;84.75;;
74214;Laerm;62576;55.694;37.494;2024-03-02T05:34:41;66.46;57.67;72.10;;
74214;Laerm;62576;55.694;37.494;2024-03-02T05:37:11;66.84;60.24;72.19;;
74214;Laerm;62576;55.694;37.494;2024-03-02T05:39:41;66.29;54.78;73.01;;
74214;Laerm;62576;55.694;37.494;2024-03-02T05:42:14;66.20;57.62;73.49;;
74214;Laerm;62576;55.694;37.494;2024-03-02T05:44:45;65.32;56.15;71.16;;
74214;Laerm;62576;55.694;37.494;2024-03-02T05:47:15;65.56;56.25;69.91;;
74214;Laerm;62576;55.694;37.494;2024-03-02T05:49:45;66.83;54.56;72.96;;
74214;Laerm;62576;55.694;37.494;2024-03-02T05:52:15;67.07;54.33;73.13;;
74214;Laerm;62576;55.694;37.494;2024-03-02T05:54:46;67.07;58.64;73.41;;
74214;Laerm;62576;55.694;37.494;2024-03-02T05:57:19;66.21;55.79;73.13;;
74214;Laerm;62576;55.694;37.494;2024-03-02T06:00:02;65.31;55.88;71.83;;
74214;Laerm;62576;55.694;37.494;2024-03-02T06:02:39;65.07;58.41;70.99;;
74214;Laerm;62576;55.694;37.494;2024-03-02T06:05:09;65.70;57.47;71.06;;
74214;Laerm;62576;55.694;37.494;2024-03-02T06:07:39;66.21;55.71;72.21;;
74214;Laerm;62576;55.694;37.494;2024-03-02T06:10:09;65.39;59.21;70.49;;
74214;Laerm;62576;55.694;37.494;2024-03-02T06:12:41;65.37;58.63;73.64;;
74214;Laerm;62576;55.694;37.494;2024-03-02T06:15:11;65.68;57.48;72.96;;
74214;Laerm;62576;55.694;37.494;2024-03-02T06:17:42;65.90;58.20;70.98;;
74214;Laerm;62576;55.694;37.494;2024-03-02T06:20:12;65.74;56.66;71.33;;
74214;Laerm;62576;55.694;37.494;2024-03-02T06:22:42;65.40;54.13;72.63;;
74214;Laerm;62576;55.694;37.494;2024-03-02T06:25:13;66.51;59.04;81.23;;
74214;Laerm;62576;55.694;37.494;2024-03-02T06:27:45;65.86;57.30;79.79;;
74214;Laerm;62576;55.694;37.494;2024-03-02T06:30:15;66.43;56.83;79.65;;
74214;Laerm;62576;55.694;37.494;2024-03-02T06:32:45;64.74;56.56;69.35;;
74214;Laerm;62576;55.694;37.494;2024-03-02T06:35:15;65.43;57.55;70.73;;
74214;Laerm;62576;55.694;37.494;2024-03-02T06:37:46;65.02;55.87;71.22;;
74214;Laerm;62576;55.694;37.494;2024-03-02T06:40:16;64.41;55.17;70.25;;
74214;Laerm;62576;55.694;37.494;2024-03-02T06:42:48;63.96;55.60;70.79;;
74214;Laerm;62576;55.694;37.494;2024-03-02T06:45:17;68.01;58.48;75.88;;
74214;Laerm;62576;55.694;37.494;2024-03-02T06:47:48;67.93;59.73;75.48;;
74214;Laerm;62576;55.694;37.494;2024-03-02T06:50:18;67.82;61.81;73.76;;
74214;Laerm;62576;55.694;37.494;2024-03-02T06:52:49;66.77;59.22;72.95;;
74214;Laerm;62576;55.694;37.494;2024-03-02T06:55:16;65.43;59.11;69.48;;
74214;Laerm;62576;55.694;37.494;2024-03-02T06:57:48;64.99;60.18;70.04;;
74214;Laerm;62576;55.694;37.494;2024-03-02T07:00:19;64.90;59.18;70.12;;
74214;Laerm;62576;55.694;37.494;2024-03-02T07:02:50;65.47;60.32;70.05;;
74214;Laerm;62576;55.694;37.494;2024-03-02T07:05:20;64.79;59.10;70.20;;
74214;Laerm;62576;55.694;37.494;2024-03-02T07:07:50;64.54;59.87;68.73;;
74214;Laerm;62576;55.694;37.494;2024-03-02T07:10:21;64.86;60.46;68.03;;
74214;Laerm;62576;55.694;37.494;2024-03-02T07:12:52;64.99;59.52;69.03;;
74214;Laerm;62576;55.694;37.494;2024-03-02T07:15:20;65.55;60.38;71.02;;
74214;Laerm;62576;55.694;37.494;2024-03-02T07:18:13;65.33;59.48;68.91;;
74214;Laerm;62576;55.694;37.494;2024-03-02T07:20:43;65.26;55.43;68.93;;
74214;Laerm;62576;55.694;37.494;2024-03-02T07:23:13;63.85;57.17;69.09;;
74214;Laerm;62576;55.694;37.494;2024-03-02T07:25:43;66.67;28.78;96.23;;
74214;Laerm;62576;55.694;37.494;2024-03-02T07:28:15;64.13;57.56;68.96;;
74214;Laerm;62576;55.694;37.494;2024-03-02T07:30:45;69.21;48.72;96.23;;
74214;Laerm;62576;55.694;37.494;2024-03-02T07:33:16;68.27;43.19;99.19;;
74214;Laerm;62576;55.694;37.494;2024-03-02T07:36:00;66.81;21.75;99.23;;
74214;Laerm;62576;55.694;37.494;2024-03-02T07:38:31;63.98;31.66;69.01;;
74214;Laerm;62576;55.694;37.494;2024-03-02T07:41:03;69.43;19.40;96.23;;
74214;Laerm;62576;55.694;37.494;2024-03-02T07:43:35;63.54;-3.02;67.85;;
74214;Laerm;62576;55.694;37.494;2024-03-02T07:46:05;66.61;-12.30;96.23;;
74214;Laerm;62576;55.694;37.494;2024-03-02T07:48:35;63.16;-34.49;96.21;;
74214;Laerm;62576;55.694;37.494;2024-03-02T07:51:06;63.06;-42.37;96.22;;
74214;Laerm;62576;55.694;37.494;2024-03-02T07:53:36;69.87;-334.33;96.23;;
74214;Laerm;62576;55.694;37.494;2024-03-02T07:56:07;65.87;-327.34;96.18;;
74214;Laerm;62576;55.694;37.494;2024-03-02T07:58:36;68.92;-331.32;96.23;;
74214;Laerm;62576;55.694;37.494;2024-03-02T08:01:06;68.91;-329.56;96.23;;
74214;Laerm;62576;55.694;37.494;2024-03-02T08:03:38;67.64;-328.31;96.23;;
74214;Laerm;62576;55.694;37.494;2024-03-02T08:06:08;67.66;-42.85;96.22;;
74214;Laerm;62576;55.694;37.494;2024-03-02T08:08:39;67.67;-46.44;96.23;;
74214;Laerm;62576;55.694;37.494;2024-03-02T08:11:09;65.92;-110.34;96.23;;
74214;Laerm;62576;55.694;37.494;2024-03-02T08:13:41;41.74;-216.79;53.72;;
74214;Laerm;62576;55.694;37.494;2024-03-02T08:16:11;67.65;-323.91;96.23;;
74214;Laerm;62576;55.694;37.494;2024-03-02T08:18:42;65.84;-328.31;96.23;;
74214;Laerm;62576;55.694;37.494;2024-03-02T08:21:13;68.88;-326.54;96.23;;
74214;Laerm;62576;55.694;37.494;2024-03-02T08:23:43;77.83;-331.32;96.23;;
74214;Laerm;62576;55.694;37.494;2024-03-02T08:26:14;5.00;5.00;5.00;;
74214;Laerm;62576;55.694;37.494;2024-03-02T08:28:46;5.00;5.00;5.00;;
74214;Laerm;62576;55.694;37.494;2024-03-02T08:31:17;5.00;5.00;5.00;;
74214;Laerm;62576;55.694;37.494;2024-03-02T08:33:47;5.00;5.00;5.00;;
74214;Laerm;62576;55.694;37.494;2024-03-02T08:36:17;37.54;-323.53;73.89;;
74214;Laerm;62576;55.694;37.494;2024-03-02T08:38:48;5.00;5.00;5.00;;
74214;Laerm;62576;55.694;37.494;2024-03-02T08:41:19;5.00;5.00;5.00;;
74214;Laerm;62576;55.694;37.494;2024-03-02T08:43:51;5.00;5.00;5.00;;
74214;Laerm;62576;55.694;37.494;2024-03-02T08:46:21;5.00;5.00;5.00;;
74214;Laerm;62576;55.694;37.494;2024-03-02T08:48:51;5.00;5.00;5.00;;
74214;Laerm;62576;55.694;37.494;2024-03-02T08:51:22;5.00;5.00;5.00;;
74214;Laerm;62576;55.694;37.494;2024-03-02T08:53:52;5.00;5.00;5.00;;
74214;Laerm;62576;55.694;37.494;2024-03-02T08:56:22;5.00;5.00;5.00;;
74214;Laerm;62576;55.694;37.494;2024-03-02T08:58:52;5.00;5.00;5.00;;
74214;Laerm;62576;55.694;37.494;2024-03-02T09:01:22;5.00;5.00;5.00;;
74214;Laerm;62576;55.694;37.494;2024-03-02T09:03:55;5.00;5.00;5.00;;
74214;Laerm;62576;55.694;37.494;2024-03-02T09:06:32;5.00;5.00;5.00;;
74214;Laerm;62576;55.694;37.494;2024-03-02T09:09:11;5.00;5.00;5.00;;
74214;Laerm;62576;55.694;37.494;2024-03-02T09:11:42;5.00;5.00;5.00;;
74214;Laerm;62576;55.694;37.494;2024-03-02T09:14:14;5.00;5.00;5.00;;
74214;Laerm;62576;55.694;37.494;2024-03-02T09:16:44;5.00;5.00;5.00;;
74214;Laerm;62576;55.694;37.494;2024-03-02T09:19:15;5.00;5.00;5.00;;
74214;Laerm;62576;55.694;37.494;2024-03-02T09:21:45;5.00;5.00;5.00;;
74214;Laerm;62576;55.694;37.494;2024-03-02T09:24:16;5.00;5.00;5.00;;
74214;Laerm;62576;55.694;37.494;2024-03-02T09:26:46;5.00;5.00;5.00;;
74214;Laerm;62576;55.694;37.494;2024-03-02T09:29:18;5.00;5.00;5.00;;
74214;Laerm;62576;55.694;37.494;2024-03-02T09:31:49;5.00;5.00;5.00;;
74214;Laerm;62576;55.694;37.494;2024-03-02T09:34:19;5.00;5.00;5.00;;
74214;Laerm;62576;55.694;37.494;2024-03-02T09:36:51;5.00;5.00;5.00;;
74214;Laerm;62576;55.694;37.494;2024-03-02T09:39:21;5.00;5.00;5.00;;
74214;Laerm;62576;55.694;37.494;2024-03-02T09:41:52;5.00;5.00;5.00;;
74214;Laerm;62576;55.694;37.494;2024-03-02T09:44:24;5.00;5.00;5.00;;
74214;Laerm;62576;55.694;37.494;2024-03-02T09:46:55;5.00;5.00;5.00;;
74214;Laerm;62576;55.694;37.494;2024-03-02T09:49:25;5.00;5.00;5.00;;
74214;Laerm;62576;55.694;37.494;2024-03-02T09:51:56;5.00;5.00;5.00;;
74214;Laerm;62576;55.694;37.494;2024-03-02T09:54:26;5.00;5.00;5.00;;
74214;Laerm;62576;55.694;37.494;2024-03-02T09:56:57;5.00;5.00;5.00;;
74214;Laerm;62576;55.694;37.494;2024-03-02T09:59:27;5.00;5.00;5.00;;
74214;Laerm;62576;55.694;37.494;2024-03-02T10:01:58;5.00;5.00;5.00;;
74214;Laerm;62576;55.694;37.494;2024-03-02T10:04:30;5.00;5.00;5.00;;
74214;Laerm;62576;55.694;37.494;2024-03-02T10:07:21;5.00;5.00;5.00;;
74214;Laerm;62576;55.694;37.494;2024-03-02T10:09:57;5.00;5.00;5.00;;
74214;Laerm;62576;55.694;37.494;2024-03-02T10:12:27;5.00;5.00;5.00;;
74214;Laerm;62576;55.694;37.494;2024-03-02T10:15:05;5.00;5.00;5.00;;
74214;Laerm;62576;55.694;37.494;2024-03-02T10:17:36;75.29;-325.30;96.23;;
74214;Laerm;62576;55.694;37.494;2024-03-02T10:20:23;70.55;-327.34;96.23;;
74214;Laerm;62576;55.694;37.494;2024-03-02T10:22:53;5.00;5.00;5.00;;
74214;Laerm;62576;55.694;37.494;2024-03-02T10:25:30;5.00;5.00;5.00;;
74214;Laerm;62576;55.694;37.494;2024-03-02T10:28:01;5.00;5.00;5.00;;
74214;Laerm;62576;55.694;37.494;2024-03-02T10:30:35;5.00;5.00;5.00;;
74214;Laerm;62576;55.694;37.494;2024-03-02T10:33:06;5.00;5.00;5.00;;
74214;Laerm;62576;55.694;37.494;2024-03-02T10:35:36;72.16;-331.32;96.23;;
74214;Laerm;62576;55.694;37.494;2024-03-02T10:38:11;69.74;-334.33;96.23;;
74214;Laerm;62576;55.694;37.494;2024-03-02T10:40:46;62.73;-334.33;96.22;;
74214;Laerm;62576;55.694;37.494;2024-03-02T10:43:17;62.88;-325.88;96.20;;
74214;Laerm;62576;55.694;37.494;2024-03-02T10:45:52;62.75;-323.91;96.23;;
74214;Laerm;62576;55.694;37.494;2024-03-02T10:48:25;67.61;-334.33;96.23;;
74214;Laerm;62576;55.694;37.494;2024-03-02T10:50:56;76.53;-331.32;96.23;;
74214;Laerm;62576;55.694;37.494;2024-03-02T10:53:30;69.43;-328.31;96.23;;
74214;Laerm;62576;55.694;37.494;2024-03-02T10:56:01;65.86;-328.31;96.23;;
74214;Laerm;62576;55.694;37.494;2024-03-02T10:58:32;72.85;-331.32;96.23;;
74214;Laerm;62576;55.694;37.494;2024-03-02T11:01:06;71.81;-327.34;96.23;;
74214;Laerm;62576;55.694;37.494;2024-03-02T11:03:38;62.80;-334.33;96.20;;
74214;Laerm;62576;55.694;37.494;2024-03-02T11:06:12;72.07;-331.32;96.23;;
74214;Laerm;62576;55.694;37.494;2024-03-02T11:08:44;67.58;-326.54;96.22;;
74214;Laerm;62576;55.694;37.494;2024-03-02T11:11:22;5.00;5.00;5.00;;
74214;Laerm;62576;55.694;37.494;2024-03-02T11:14:01;5.00;5.00;5.00;;
74214;Laerm;62576;55.694;37.494;2024-03-02T11:16:38;5.00;5.00;5.00;;
74214;Laerm;62576;55.694;37.494;2024-03-02T11:19:11;5.00;5.00;5.00;;
74214;Laerm;62576;55.694;37.494;2024-03-02T11:21:42;5.00;5.00;5.00;;
74214;Laerm;62576;55.694;37.494;2024-03-02T11:24:34;5.00;5.00;5.00;;
74214;Laerm;62576;55.694;37.494;2024-03-02T11:27:06;5.00;5.00;5.00;;
74214;Laerm;62576;55.694;37.494;2024-03-02T11:29:43;5.00;5.00;5.00;;
74214;Laerm;62576;55.694;37.494;2024-03-02T11:32:17;5.00;5.00;5.00;;
74214;Laerm;62576;55.694;37.494;2024-03-02T11:34:49;5.00;5.00;5.00;;
74214;Laerm;62576;55.694;37.494;2024-03-02T11:37:19;5.00;5.00;5.00;;
74214;Laerm;62576;55.694;37.494;2024-03-02T11:39:51;5.00;5.00;5.00;;
74214;Laerm;62576;55.694;37.494;2024-03-02T11:42:21;5.00;5.00;5.00;;
74214;Laerm;62576;55.694;37.494;2024-03-02T11:44:56;74.04;-324.78;96.23;;
74214;Laerm;62576;55.694;37.494;2024-03-02T11:47:31;62.78;-328.31;96.22;;
74214;Laerm;62576;55.694;37.494;2024-03-02T11:50:00;59.91;-324.78;96.21;;
74214;Laerm;62576;55.694;37.494;2024-03-02T11:52:30;5.00;5.00;5.00;;
74214;Laerm;62576;55.694;37.494;2024-03-02T11:55:02;5.00;5.00;5.00;;
74214;Laerm;62576;55.694;37.494;2024-03-02T11:57:33;5.00;5.00;5.00;;
74214;Laerm;62576;55.694;37.494;2024-03-02T12:00:04;5.00;5.00;5.00;;
74214;Laerm;62576;55.694;37.494;2024-03-02T12:02:37;5.00;5.00;5.00;;
74214;Laerm;62576;55.694;37.494;2024-03-02T12:05:10;5.00;5.00;5.00;;
74214;Laerm;62576;55.694;37.494;2024-03-02T12:07:41;5.00;5.00;5.00;;
74214;Laerm;62576;55.694;37.494;2024-03-02T12:10:12;5.00;5.00;5.00;;
74214;Laerm;62576;55.694;37.494;2024-03-02T12:12:42;5.00;5.00;5.00;;
74214;Laerm;62576;55.694;37.494;2024-03-02T12:15:12;5.00;5.00;5.00;;
74214;Laerm;62576;55.694;37.494;2024-03-02T12:17:44;5.00;5.00;5.00;;
74214;Laerm;62576;55.694;37.494;2024-03-02T12:20:15;5.00;5.00;5.00;;
74214;Laerm;62576;55.694;37.494;2024-03-02T12:22:46;5.00;5.00;5.00;;
74214;Laerm;62576;55.694;37.494;2024-03-02T12:25:17;5.00;5.00;5.00;;
74214;Laerm;62576;55.694;37.494;2024-03-02T12:27:50;5.00;5.00;5.00;;
74214;Laerm;62576;55.694;37.494;2024-03-02T12:30:22;5.00;5.00;5.00;;
74214;Laerm;62576;55.694;37.494;2024-03-02T12:32:54;5.00;5.00;5.00;;
74214;Laerm;62576;55.694;37.494;2024-03-02T12:35:25;5.00;5.00;5.00;;
74214;Laerm;62576;55.694;37.494;2024-03-02T12:37:55;5.00;5.00;5.00;;
74214;Laerm;62576;55.694;37.494;2024-03-02T12:40:26;5.00;5.00;5.00;;
74214;Laerm;62576;55.694;37.494;2024-03-02T12:42:56;5.00;5.00;5.00;;
74214;Laerm;62576;55.694;37.494;2024-03-02T12:45:27;5.00;5.00;5.00;;
74214;Laerm;62576;55.694;37.494;2024-03-02T12:48:00;5.00;5.00;5.00;;
74214;Laerm;62576;55.694;37.494;2024-03-02T12:50:30;5.00;5.00;5.00;;
74214;Laerm;62576;55.694;37.494;2024-03-02T12:53:00;5.00;5.00;5.00;;
74214;Laerm;62576;55.694;37.494;2024-03-02T12:55:31;73.05;-331.32;96.23;;
74214;Laerm;62576;55.694;37.494;2024-03-02T12:58:01;67.66;-315.08;96.23;;
74214;Laerm;62576;55.694;37.494;2024-03-02T13:00:31;62.99;-58.99;96.23;;
74214;Laerm;62576;55.694;37.494;2024-03-02T13:03:06;65.95;-47.24;96.23;;
74214;Laerm;62576;55.694;37.494;2024-03-02T13:05:39;65.93;-27.79;96.23;;
74214;Laerm;62576;55.694;37.494;2024-03-02T13:08:10;63.36;-24.72;96.22;;
74214;Laerm;62576;55.694;37.494;2024-03-02T13:10:40;67.81;-14.51;96.23;;
74214;Laerm;62576;55.694;37.494;2024-03-02T13:13:10;69.89;-42.27;96.23;;
74214;Laerm;62576;55.694;37.494;2024-03-02T13:15:41;70.61;-329.56;96.23;;
74214;Laerm;62576;55.694;37.494;2024-03-02T13:18:13;68.81;-327.34;96.23;;
74214;Laerm;62576;55.694;37.494;2024-03-02T13:20:44;5.00;5.00;5.00;;
74214;Laerm;62576;55.694;37.494;2024-03-02T13:23:14;68.88;-327.34;96.23;;
74214;Laerm;62576;55.694;37.494;2024-03-02T13:25:44;65.98;-53.10;96.23;;
74214;Laerm;62576;55.694;37.494;2024-03-02T13:28:15;63.66;-19.72;96.20;;
74214;Laerm;62576;55.694;37.494;2024-03-02T13:30:46;63.86;11.76;67.68;;
74214;Laerm;62576;55.694;37.494;2024-03-02T13:33:18;64.84;59.99;68.68;;
74214;Laerm;62576;55.694;37.494;2024-03-02T13:35:51;65.17;61.18;70.28;;
74214;Laerm;62576;55.694;37.494;2024-03-02T13:38:22;65.33;59.73;73.13;;
74214;Laerm;62576;55.694;37.494;2024-03-02T13:40:52;66.19;60.68;77.02;;
74214;Laerm;62576;55.694;37.494;2024-03-02T13:43:22;65.31;58.42;76.31;;
74214;Laerm;62576;55.694;37.494;2024-03-02T13:45:53;68.10;58.14;86.29;;
74214;Laerm;62576;55.694;37.494;2024-03-02T13:48:25;65.76;61.46;77.70;;
74214;Laerm;62576;55.694;37.494;2024-03-02T13:50:56;65.71;60.01;72.08;;
74214;Laerm;62576;55.694;37.494;2024-03-02T13:53:26;66.25;60.33;75.68;;
74214;Laerm;62576;55.694;37.494;2024-03-02T13:55:57;67.79;60.15;76.52;;
74214;Laerm;62576;55.694;37.494;2024-03-02T13:58:27;65.19;59.76;73.25;;
74214;Laerm;62576;55.694;37.494;2024-03-02T14:00:57;65.68;58.09;76.33;;
74214;Laerm;62576;55.694;37.494;2024-03-02T14:03:30;65.78;60.53;71.10;;